sensor_id;sensor_type;location;lat;lon;timestamp;temperature;humidity
32446;DHT22;18899;50.748;7.102;2024-01-07T00:02:24;3.60;99.90
32446;DHT22;18899;50.748;7.102;2024-01-07T00:04:50;3.60;99.90
32446;DHT22;18899;50.748;7.102;2024-01-07T00:07:15;3.70;99.90
32446;DHT22;18899;50.748;7.102;2024-01-07T00:09:41;3.70;99.90
32446;DHT22;18899;50.748;7.102;2024-01-07T00:12:07;3.70;99.90
32446;DHT22;18899;50.748;7.102;2024-01-07T00:14:32;3.70;99.90
32446;DHT22;18899;50.748;7.102;2024-01-07T00:16:58;3.70;99.90
32446;DHT22;18899;50.748;7.102;2024-01-07T00:19:23;3.70;99.90
32446;DHT22;18899;50.748;7.102;2024-01-07T00:21:49;3.70;99.90
32446;DHT22;18899;50.748;7.102;2024-01-07T00:24:15;3.70;99.90
32446;DHT22;18899;50.748;7.102;2024-01-07T00:26:41;3.70;99.90
32446;DHT22;18899;50.748;7.102;2024-01-07T00:29:06;3.80;99.90
32446;DHT22;18899;50.748;7.102;2024-01-07T00:31:32;3.80;99.90
32446;DHT22;18899;50.748;7.102;2024-01-07T00:33:57;3.80;99.90
32446;DHT22;18899;50.748;7.102;2024-01-07T00:36:23;3.90;99.90
32446;DHT22;18899;50.748;7.102;2024-01-07T00:38:48;3.90;99.90
32446;DHT22;18899;50.748;7.102;2024-01-07T00:41:14;3.90;99.90
32446;DHT22;18899;50.748;7.102;2024-01-07T00:43:40;3.90;99.90
32446;DHT22;18899;50.748;7.102;2024-01-07T00:46:06;3.90;99.90
32446;DHT22;18899;50.748;7.102;2024-01-07T00:48:32;3.90;99.90
32446;DHT22;18899;50.748;7.102;2024-01-07T00:50:57;3.90;99.90
32446;DHT22;18899;50.748;7.102;2024-01-07T00:53:23;3.80;99.90
32446;DHT22;18899;50.748;7.102;2024-01-07T00:55:48;3.80;99.90
32446;DHT22;18899;50.748;7.102;2024-01-07T00:58:14;3.70;99.90
32446;DHT22;18899;50.748;7.102;2024-01-07T01:00:39;3.70;99.90
32446;DHT22;18899;50.748;7.102;2024-01-07T01:03:05;3.70;99.90
32446;DHT22;18899;50.748;7.102;2024-01-07T01:05:30;3.70;99.90
32446;DHT22;18899;50.748;7.102;2024-01-07T01:07:56;3.80;99.90
32446;DHT22;18899;50.748;7.102;2024-01-07T01:10:21;3.80;99.90
32446;DHT22;18899;50.748;7.102;2024-01-07T01:12:47;3.90;99.90
32446;DHT22;18899;50.748;7.102;2024-01-07T01:15:13;3.90;99.90
32446;DHT22;18899;50.748;7.102;2024-01-07T01:17:38;3.90;99.90
32446;DHT22;18899;50.748;7.102;2024-01-07T01:20:04;3.90;99.90
32446;DHT22;18899;50.748;7.102;2024-01-07T01:22:30;3.90;99.90
32446;DHT22;18899;50.748;7.102;2024-01-07T01:24:55;3.90;99.90
32446;DHT22;18899;50.748;7.102;2024-01-07T01:27:21;3.80;99.90
32446;DHT22;18899;50.748;7.102;2024-01-07T01:29:47;3.80;99.90
32446;DHT22;18899;50.748;7.102;2024-01-07T01:32:12;3.80;99.90
32446;DHT22;18899;50.748;7.102;2024-01-07T01:34:40;3.80;99.90
32446;DHT22;18899;50.748;7.102;2024-01-07T01:37:05;3.80;99.90
32446;DHT22;18899;50.748;7.102;2024-01-07T01:39:31;3.80;99.90
32446;DHT22;18899;50.748;7.102;2024-01-07T01:41:56;3.80;99.90
32446;DHT22;18899;50.748;7.102;2024-01-07T01:44:23;3.80;99.90
32446;DHT22;18899;50.748;7.102;2024-01-07T01:46:49;3.80;99.90
32446;DHT22;18899;50.748;7.102;2024-01-07T01:49:15;3.80;99.90
32446;DHT22;18899;50.748;7.102;2024-01-07T01:51:41;3.90;99.90
32446;DHT22;18899;50.748;7.102;2024-01-07T01:54:07;3.90;99.90
32446;DHT22;18899;50.748;7.102;2024-01-07T01:56:33;3.90;99.90
32446;DHT22;18899;50.748;7.102;2024-01-07T01:58:59;3.90;99.90
32446;DHT22;18899;50.748;7.102;2024-01-07T02:01:25;3.90;99.90
32446;DHT22;18899;50.748;7.102;2024-01-07T02:03:51;3.80;99.90
32446;DHT22;18899;50.748;7.102;2024-01-07T02:06:18;3.80;99.90
32446;DHT22;18899;50.748;7.102;2024-01-07T02:08:43;3.90;99.90
32446;DHT22;18899;50.748;7.102;2024-01-07T02:11:19;3.90;99.90
32446;DHT22;18899;50.748;7.102;2024-01-07T02:13:45;3.90;99.90
32446;DHT22;18899;50.748;7.102;2024-01-07T02:16:11;3.90;99.90
32446;DHT22;18899;50.748;7.102;2024-01-07T02:18:42;3.90;99.90
32446;DHT22;18899;50.748;7.102;2024-01-07T02:21:09;3.90;99.90
32446;DHT22;18899;50.748;7.102;2024-01-07T02:23:35;3.90;99.90
32446;DHT22;18899;50.748;7.102;2024-01-07T02:26:00;3.90;99.90
32446;DHT22;18899;50.748;7.102;2024-01-07T02:28:26;3.90;99.90
32446;DHT22;18899;50.748;7.102;2024-01-07T02:30:51;3.90;99.90
32446;DHT22;18899;50.748;7.102;2024-01-07T02:33:17;3.90;99.90
32446;DHT22;18899;50.748;7.102;2024-01-07T02:35:43;3.90;99.90
32446;DHT22;18899;50.748;7.102;2024-01-07T02:38:08;3.90;99.90
32446;DHT22;18899;50.748;7.102;2024-01-07T02:40:34;3.90;99.90
32446;DHT22;18899;50.748;7.102;2024-01-07T02:42:59;4.00;99.90
32446;DHT22;18899;50.748;7.102;2024-01-07T02:45:25;4.00;99.90
32446;DHT22;18899;50.748;7.102;2024-01-07T02:47:50;4.00;99.90
32446;DHT22;18899;50.748;7.102;2024-01-07T02:50:16;4.00;99.90
32446;DHT22;18899;50.748;7.102;2024-01-07T02:52:42;4.00;99.90
32446;DHT22;18899;50.748;7.102;2024-01-07T02:55:08;4.00;99.90
32446;DHT22;18899;50.748;7.102;2024-01-07T02:57:34;4.00;99.90
32446;DHT22;18899;50.748;7.102;2024-01-07T02:59:59;4.00;99.90
32446;DHT22;18899;50.748;7.102;2024-01-07T03:02:25;3.90;99.90
32446;DHT22;18899;50.748;7.102;2024-01-07T03:04:51;3.90;99.90
32446;DHT22;18899;50.748;7.102;2024-01-07T03:07:16;3.90;99.90
32446;DHT22;18899;50.748;7.102;2024-01-07T03:09:42;3.90;99.90
32446;DHT22;18899;50.748;7.102;2024-01-07T03:12:07;3.80;99.90
32446;DHT22;18899;50.748;7.102;2024-01-07T03:14:33;3.90;99.90
32446;DHT22;18899;50.748;7.102;2024-01-07T03:16:58;3.90;99.90
32446;DHT22;18899;50.748;7.102;2024-01-07T03:19:24;3.80;99.90
32446;DHT22;18899;50.748;7.102;2024-01-07T03:21:50;3.90;99.90
32446;DHT22;18899;50.748;7.102;2024-01-07T03:24:16;3.80;99.90
32446;DHT22;18899;50.748;7.102;2024-01-07T03:26:41;3.80;99.90
32446;DHT22;18899;50.748;7.102;2024-01-07T03:29:07;3.90;99.90
32446;DHT22;18899;50.748;7.102;2024-01-07T03:31:33;3.80;99.90
32446;DHT22;18899;50.748;7.102;2024-01-07T03:33:58;3.80;99.90
32446;DHT22;18899;50.748;7.102;2024-01-07T03:36:24;3.80;99.90
32446;DHT22;18899;50.748;7.102;2024-01-07T03:38:49;3.80;99.90
32446;DHT22;18899;50.748;7.102;2024-01-07T03:41:18;3.80;99.90
32446;DHT22;18899;50.748;7.102;2024-01-07T03:43:48;3.80;99.90
32446;DHT22;18899;50.748;7.102;2024-01-07T03:46:14;3.80;99.90
32446;DHT22;18899;50.748;7.102;2024-01-07T03:48:41;3.80;99.90
32446;DHT22;18899;50.748;7.102;2024-01-07T03:51:06;3.80;99.90
32446;DHT22;18899;50.748;7.102;2024-01-07T03:53:32;3.80;99.90
32446;DHT22;18899;50.748;7.102;2024-01-07T03:55:58;3.80;99.90
32446;DHT22;18899;50.748;7.102;2024-01-07T03:58:24;3.70;99.90
32446;DHT22;18899;50.748;7.102;2024-01-07T04:00:49;3.70;99.90
32446;DHT22;18899;50.748;7.102;2024-01-07T04:03:15;3.70;99.90
32446;DHT22;18899;50.748;7.102;2024-01-07T04:05:40;3.60;99.90
32446;DHT22;18899;50.748;7.102;2024-01-07T04:08:08;3.60;99.90
32446;DHT22;18899;50.748;7.102;2024-01-07T04:10:34;3.60;99.90
32446;DHT22;18899;50.748;7.102;2024-01-07T04:12:59;3.70;99.90
32446;DHT22;18899;50.748;7.102;2024-01-07T04:15:25;3.70;99.90
32446;DHT22;18899;50.748;7.102;2024-01-07T04:17:50;3.70;99.90
32446;DHT22;18899;50.748;7.102;2024-01-07T04:20:16;3.80;99.90
32446;DHT22;18899;50.748;7.102;2024-01-07T04:22:42;3.70;99.90
32446;DHT22;18899;50.748;7.102;2024-01-07T04:25:07;3.70;99.90
32446;DHT22;18899;50.748;7.102;2024-01-07T04:27:37;3.80;99.90
32446;DHT22;18899;50.748;7.102;2024-01-07T04:30:03;3.70;99.90
32446;DHT22;18899;50.748;7.102;2024-01-07T04:32:29;3.60;99.90
32446;DHT22;18899;50.748;7.102;2024-01-07T04:34:54;3.60;99.90
32446;DHT22;18899;50.748;7.102;2024-01-07T04:37:21;3.70;99.90
32446;DHT22;18899;50.748;7.102;2024-01-07T04:39:47;3.60;99.90
32446;DHT22;18899;50.748;7.102;2024-01-07T04:42:13;3.70;99.90
32446;DHT22;18899;50.748;7.102;2024-01-07T04:44:38;3.70;99.90
32446;DHT22;18899;50.748;7.102;2024-01-07T04:47:04;3.70;99.90
32446;DHT22;18899;50.748;7.102;2024-01-07T04:49:29;3.70;99.90
32446;DHT22;18899;50.748;7.102;2024-01-07T04:51:55;3.60;99.90
32446;DHT22;18899;50.748;7.102;2024-01-07T04:54:20;3.60;99.90
32446;DHT22;18899;50.748;7.102;2024-01-07T04:56:46;3.70;99.90
32446;DHT22;18899;50.748;7.102;2024-01-07T04:59:11;3.70;99.90
32446;DHT22;18899;50.748;7.102;2024-01-07T05:01:37;3.80;99.90
32446;DHT22;18899;50.748;7.102;2024-01-07T05:04:02;3.80;99.90
32446;DHT22;18899;50.748;7.102;2024-01-07T05:06:28;3.80;99.90
32446;DHT22;18899;50.748;7.102;2024-01-07T05:08:53;3.80;99.90
32446;DHT22;18899;50.748;7.102;2024-01-07T05:11:19;3.80;99.90
32446;DHT22;18899;50.748;7.102;2024-01-07T05:13:44;3.80;99.90
32446;DHT22;18899;50.748;7.102;2024-01-07T05:16:18;3.80;99.90
32446;DHT22;18899;50.748;7.102;2024-01-07T05:18:44;3.90;99.90
32446;DHT22;18899;50.748;7.102;2024-01-07T05:21:14;3.90;99.90
32446;DHT22;18899;50.748;7.102;2024-01-07T05:23:40;3.90;99.90
32446;DHT22;18899;50.748;7.102;2024-01-07T05:26:05;3.90;99.90
32446;DHT22;18899;50.748;7.102;2024-01-07T05:28:31;3.70;99.90
32446;DHT22;18899;50.748;7.102;2024-01-07T05:30:56;3.60;99.90
32446;DHT22;18899;50.748;7.102;2024-01-07T05:33:22;3.50;99.90
32446;DHT22;18899;50.748;7.102;2024-01-07T05:35:47;3.30;99.90
32446;DHT22;18899;50.748;7.102;2024-01-07T05:38:13;3.30;99.90
32446;DHT22;18899;50.748;7.102;2024-01-07T05:40:38;3.20;99.90
32446;DHT22;18899;50.748;7.102;2024-01-07T05:43:04;3.20;99.90
32446;DHT22;18899;50.748;7.102;2024-01-07T05:45:29;3.20;99.90
32446;DHT22;18899;50.748;7.102;2024-01-07T05:47:55;3.20;99.90
32446;DHT22;18899;50.748;7.102;2024-01-07T05:50:20;3.30;99.90
32446;DHT22;18899;50.748;7.102;2024-01-07T05:52:46;3.20;99.90
32446;DHT22;18899;50.748;7.102;2024-01-07T05:55:12;3.20;99.90
32446;DHT22;18899;50.748;7.102;2024-01-07T05:57:37;3.20;99.90
32446;DHT22;18899;50.748;7.102;2024-01-07T06:00:03;3.20;99.90
32446;DHT22;18899;50.748;7.102;2024-01-07T06:02:29;3.20;99.90
32446;DHT22;18899;50.748;7.102;2024-01-07T06:04:54;3.10;99.90
32446;DHT22;18899;50.748;7.102;2024-01-07T06:07:20;3.00;99.90
32446;DHT22;18899;50.748;7.102;2024-01-07T06:09:45;3.00;99.90
32446;DHT22;18899;50.748;7.102;2024-01-07T06:12:11;3.00;99.90
32446;DHT22;18899;50.748;7.102;2024-01-07T06:14:36;3.00;99.90
32446;DHT22;18899;50.748;7.102;2024-01-07T06:17:02;2.90;99.90
32446;DHT22;18899;50.748;7.102;2024-01-07T06:19:27;2.90;99.90
32446;DHT22;18899;50.748;7.102;2024-01-07T06:21:53;2.80;99.90
32446;DHT22;18899;50.748;7.102;2024-01-07T06:24:18;2.80;99.90
32446;DHT22;18899;50.748;7.102;2024-01-07T06:26:44;2.90;99.90
32446;DHT22;18899;50.748;7.102;2024-01-07T06:29:09;2.90;99.90
32446;DHT22;18899;50.748;7.102;2024-01-07T06:31:35;2.90;99.90
32446;DHT22;18899;50.748;7.102;2024-01-07T06:34:00;2.90;99.90
32446;DHT22;18899;50.748;7.102;2024-01-07T06:36:26;2.90;99.90
32446;DHT22;18899;50.748;7.102;2024-01-07T06:38:52;2.90;99.90
32446;DHT22;18899;50.748;7.102;2024-01-07T06:41:18;2.90;99.90
32446;DHT22;18899;50.748;7.102;2024-01-07T06:43:43;2.90;99.90
32446;DHT22;18899;50.748;7.102;2024-01-07T06:46:10;2.80;99.90
32446;DHT22;18899;50.748;7.102;2024-01-07T06:48:35;2.80;99.90
32446;DHT22;18899;50.748;7.102;2024-01-07T06:51:01;2.90;99.90
32446;DHT22;18899;50.748;7.102;2024-01-07T06:53:26;2.90;99.90
32446;DHT22;18899;50.748;7.102;2024-01-07T06:55:52;2.90;99.90
32446;DHT22;18899;50.748;7.102;2024-01-07T06:58:17;2.90;99.90
32446;DHT22;18899;50.748;7.102;2024-01-07T07:00:44;2.90;99.90
32446;DHT22;18899;50.748;7.102;2024-01-07T07:03:09;2.90;99.90
32446;DHT22;18899;50.748;7.102;2024-01-07T07:05:35;2.80;99.90
32446;DHT22;18899;50.748;7.102;2024-01-07T07:08:02;2.80;99.90
32446;DHT22;18899;50.748;7.102;2024-01-07T07:10:28;2.80;99.90
32446;DHT22;18899;50.748;7.102;2024-01-07T07:12:53;2.80;99.90
32446;DHT22;18899;50.748;7.102;2024-01-07T07:15:19;2.80;99.90
32446;DHT22;18899;50.748;7.102;2024-01-07T07:17:44;2.80;99.90
32446;DHT22;18899;50.748;7.102;2024-01-07T07:20:10;2.90;99.90
32446;DHT22;18899;50.748;7.102;2024-01-07T07:22:36;2.90;99.90
32446;DHT22;18899;50.748;7.102;2024-01-07T07:25:01;3.00;99.90
32446;DHT22;18899;50.748;7.102;2024-01-07T07:27:27;3.10;99.90
32446;DHT22;18899;50.748;7.102;2024-01-07T07:29:53;3.10;99.90
32446;DHT22;18899;50.748;7.102;2024-01-07T07:32:18;3.10;99.90
32446;DHT22;18899;50.748;7.102;2024-01-07T07:34:44;3.20;99.90
32446;DHT22;18899;50.748;7.102;2024-01-07T07:37:09;3.20;99.90
32446;DHT22;18899;50.748;7.102;2024-01-07T07:39:35;3.20;99.90
32446;DHT22;18899;50.748;7.102;2024-01-07T07:42:01;3.20;99.90
32446;DHT22;18899;50.748;7.102;2024-01-07T07:44:26;3.30;99.90
32446;DHT22;18899;50.748;7.102;2024-01-07T07:46:52;3.30;99.90
32446;DHT22;18899;50.748;7.102;2024-01-07T07:49:18;3.30;99.90
32446;DHT22;18899;50.748;7.102;2024-01-07T07:51:43;3.30;99.90
32446;DHT22;18899;50.748;7.102;2024-01-07T07:54:09;3.30;99.90
32446;DHT22;18899;50.748;7.102;2024-01-07T07:56:34;3.40;99.90
32446;DHT22;18899;50.748;7.102;2024-01-07T07:59:04;3.40;99.90
32446;DHT22;18899;50.748;7.102;2024-01-07T08:01:29;3.40;99.90
32446;DHT22;18899;50.748;7.102;2024-01-07T08:03:55;3.40;99.90
32446;DHT22;18899;50.748;7.102;2024-01-07T08:06:20;3.40;99.90
32446;DHT22;18899;50.748;7.102;2024-01-07T08:08:46;3.30;99.90
32446;DHT22;18899;50.748;7.102;2024-01-07T08:11:11;3.40;99.90
32446;DHT22;18899;50.748;7.102;2024-01-07T08:13:37;3.30;99.90
32446;DHT22;18899;50.748;7.102;2024-01-07T08:16:04;3.30;99.90
32446;DHT22;18899;50.748;7.102;2024-01-07T08:18:29;3.20;99.90
32446;DHT22;18899;50.748;7.102;2024-01-07T08:20:55;3.20;99.90
32446;DHT22;18899;50.748;7.102;2024-01-07T08:23:20;3.10;99.90
32446;DHT22;18899;50.748;7.102;2024-01-07T08:25:46;3.10;99.90
32446;DHT22;18899;50.748;7.102;2024-01-07T08:28:11;3.00;99.90
32446;DHT22;18899;50.748;7.102;2024-01-07T08:30:37;3.00;99.90
32446;DHT22;18899;50.748;7.102;2024-01-07T08:33:03;3.00;99.90
32446;DHT22;18899;50.748;7.102;2024-01-07T08:35:29;3.00;99.90
32446;DHT22;18899;50.748;7.102;2024-01-07T08:37:55;3.00;99.90
32446;DHT22;18899;50.748;7.102;2024-01-07T08:40:20;3.10;99.90
32446;DHT22;18899;50.748;7.102;2024-01-07T08:42:46;3.10;99.90
32446;DHT22;18899;50.748;7.102;2024-01-07T08:45:11;3.10;99.90
32446;DHT22;18899;50.748;7.102;2024-01-07T08:47:37;3.10;99.90
32446;DHT22;18899;50.748;7.102;2024-01-07T08:50:03;3.00;99.90
32446;DHT22;18899;50.748;7.102;2024-01-07T08:52:28;3.00;99.90
32446;DHT22;18899;50.748;7.102;2024-01-07T08:54:54;3.00;99.90
32446;DHT22;18899;50.748;7.102;2024-01-07T08:57:20;3.00;99.90
32446;DHT22;18899;50.748;7.102;2024-01-07T08:59:46;3.10;99.90
32446;DHT22;18899;50.748;7.102;2024-01-07T09:02:11;3.20;99.90
32446;DHT22;18899;50.748;7.102;2024-01-07T09:04:37;3.10;99.90
32446;DHT22;18899;50.748;7.102;2024-01-07T09:07:03;3.10;99.90
32446;DHT22;18899;50.748;7.102;2024-01-07T09:09:29;3.10;99.90
32446;DHT22;18899;50.748;7.102;2024-01-07T09:11:54;3.10;99.90
32446;DHT22;18899;50.748;7.102;2024-01-07T09:14:22;3.10;99.90
32446;DHT22;18899;50.748;7.102;2024-01-07T09:16:47;3.10;99.90
32446;DHT22;18899;50.748;7.102;2024-01-07T09:19:13;3.10;99.90
32446;DHT22;18899;50.748;7.102;2024-01-07T09:21:38;3.10;99.90
32446;DHT22;18899;50.748;7.102;2024-01-07T09:24:04;3.20;99.90
32446;DHT22;18899;50.748;7.102;2024-01-07T09:26:30;3.30;99.90
32446;DHT22;18899;50.748;7.102;2024-01-07T09:28:56;3.30;99.90
32446;DHT22;18899;50.748;7.102;2024-01-07T09:31:22;3.30;99.90
32446;DHT22;18899;50.748;7.102;2024-01-07T09:33:47;3.20;99.90
32446;DHT22;18899;50.748;7.102;2024-01-07T09:36:13;3.20;99.90
32446;DHT22;18899;50.748;7.102;2024-01-07T09:38:40;3.20;99.90
32446;DHT22;18899;50.748;7.102;2024-01-07T09:41:05;3.20;99.90
32446;DHT22;18899;50.748;7.102;2024-01-07T09:43:31;3.20;99.90
32446;DHT22;18899;50.748;7.102;2024-01-07T09:45:57;3.30;99.90
32446;DHT22;18899;50.748;7.102;2024-01-07T09:48:24;3.20;99.90
32446;DHT22;18899;50.748;7.102;2024-01-07T09:50:51;3.30;99.90
32446;DHT22;18899;50.748;7.102;2024-01-07T09:53:19;3.40;99.90
32446;DHT22;18899;50.748;7.102;2024-01-07T09:56:11;3.50;99.90
32446;DHT22;18899;50.748;7.102;2024-01-07T09:58:40;3.60;99.90
32446;DHT22;18899;50.748;7.102;2024-01-07T10:01:06;3.60;99.90
32446;DHT22;18899;50.748;7.102;2024-01-07T10:03:32;3.70;99.90
32446;DHT22;18899;50.748;7.102;2024-01-07T10:05:58;3.70;99.90
32446;DHT22;18899;50.748;7.102;2024-01-07T10:08:23;3.80;99.90
32446;DHT22;18899;50.748;7.102;2024-01-07T10:10:49;3.80;99.90
32446;DHT22;18899;50.748;7.102;2024-01-07T10:13:15;3.80;99.90
32446;DHT22;18899;50.748;7.102;2024-01-07T10:15:40;3.80;99.90
32446;DHT22;18899;50.748;7.102;2024-01-07T10:18:07;3.90;99.90
32446;DHT22;18899;50.748;7.102;2024-01-07T10:20:33;3.80;99.90
32446;DHT22;18899;50.748;7.102;2024-01-07T10:23:02;3.70;99.90
32446;DHT22;18899;50.748;7.102;2024-01-07T10:25:33;3.60;99.90
32446;DHT22;18899;50.748;7.102;2024-01-07T10:27:59;3.50;99.90
32446;DHT22;18899;50.748;7.102;2024-01-07T10:30:25;3.50;99.90
32446;DHT22;18899;50.748;7.102;2024-01-07T10:32:55;3.60;99.90
32446;DHT22;18899;50.748;7.102;2024-01-07T10:35:32;3.60;99.90
32446;DHT22;18899;50.748;7.102;2024-01-07T10:37:59;3.60;99.90
32446;DHT22;18899;50.748;7.102;2024-01-07T10:40:27;3.60;99.90
32446;DHT22;18899;50.748;7.102;2024-01-07T10:42:52;3.70;99.90
32446;DHT22;18899;50.748;7.102;2024-01-07T10:45:19;3.70;99.90
32446;DHT22;18899;50.748;7.102;2024-01-07T10:47:49;3.60;99.90
32446;DHT22;18899;50.748;7.102;2024-01-07T10:50:16;3.60;99.90
32446;DHT22;18899;50.748;7.102;2024-01-07T10:52:43;3.60;99.90
32446;DHT22;18899;50.748;7.102;2024-01-07T10:55:11;3.50;99.90
32446;DHT22;18899;50.748;7.102;2024-01-07T10:57:43;3.50;99.90
32446;DHT22;18899;50.748;7.102;2024-01-07T11:00:11;3.60;99.90
32446;DHT22;18899;50.748;7.102;2024-01-07T11:03:06;3.60;99.90
32446;DHT22;18899;50.748;7.102;2024-01-07T11:05:49;3.60;99.90
32446;DHT22;18899;50.748;7.102;2024-01-07T11:08:32;3.60;99.90
32446;DHT22;18899;50.748;7.102;2024-01-07T11:11:06;3.50;99.90
32446;DHT22;18899;50.748;7.102;2024-01-07T11:13:36;3.50;99.90
32446;DHT22;18899;50.748;7.102;2024-01-07T11:16:04;3.60;99.90
32446;DHT22;18899;50.748;7.102;2024-01-07T11:18:30;3.50;99.90
32446;DHT22;18899;50.748;7.102;2024-01-07T11:21:00;3.40;99.90
32446;DHT22;18899;50.748;7.102;2024-01-07T11:23:30;3.50;99.90
32446;DHT22;18899;50.748;7.102;2024-01-07T11:26:00;3.40;99.90
32446;DHT22;18899;50.748;7.102;2024-01-07T11:28:46;3.50;99.90
32446;DHT22;18899;50.748;7.102;2024-01-07T11:31:15;3.40;99.90
32446;DHT22;18899;50.748;7.102;2024-01-07T11:33:46;3.60;99.90
32446;DHT22;18899;50.748;7.102;2024-01-07T11:36:13;3.60;99.90
32446;DHT22;18899;50.748;7.102;2024-01-07T11:38:44;3.70;99.90
32446;DHT22;18899;50.748;7.102;2024-01-07T11:41:11;3.80;99.90
32446;DHT22;18899;50.748;7.102;2024-01-07T11:43:38;3.80;99.90
32446;DHT22;18899;50.748;7.102;2024-01-07T11:46:04;3.90;99.90
32446;DHT22;18899;50.748;7.102;2024-01-07T11:48:29;3.90;99.90
32446;DHT22;18899;50.748;7.102;2024-01-07T11:50:55;4.00;99.90
32446;DHT22;18899;50.748;7.102;2024-01-07T11:53:20;4.10;99.90
32446;DHT22;18899;50.748;7.102;2024-01-07T11:55:46;4.10;99.90
32446;DHT22;18899;50.748;7.102;2024-01-07T11:58:12;4.00;99.90
32446;DHT22;18899;50.748;7.102;2024-01-07T12:00:38;4.10;99.90
32446;DHT22;18899;50.748;7.102;2024-01-07T12:03:04;4.00;99.90
32446;DHT22;18899;50.748;7.102;2024-01-07T12:05:30;4.10;99.90
32446;DHT22;18899;50.748;7.102;2024-01-07T12:07:56;4.10;99.90
32446;DHT22;18899;50.748;7.102;2024-01-07T12:10:23;4.20;99.90
32446;DHT22;18899;50.748;7.102;2024-01-07T12:12:49;4.10;99.90
32446;DHT22;18899;50.748;7.102;2024-01-07T12:15:16;4.10;99.90
32446;DHT22;18899;50.748;7.102;2024-01-07T12:17:42;4.10;99.90
32446;DHT22;18899;50.748;7.102;2024-01-07T12:20:08;4.00;99.90
32446;DHT22;18899;50.748;7.102;2024-01-07T12:22:38;4.00;99.90
32446;DHT22;18899;50.748;7.102;2024-01-07T12:25:05;4.00;99.90
32446;DHT22;18899;50.748;7.102;2024-01-07T12:27:31;4.00;99.90
32446;DHT22;18899;50.748;7.102;2024-01-07T12:29:58;4.00;99.90
32446;DHT22;18899;50.748;7.102;2024-01-07T12:32:26;3.90;99.90
32446;DHT22;18899;50.748;7.102;2024-01-07T12:34:52;3.90;99.90
32446;DHT22;18899;50.748;7.102;2024-01-07T12:37:17;3.90;99.90
32446;DHT22;18899;50.748;7.102;2024-01-07T12:39:43;3.90;99.90
32446;DHT22;18899;50.748;7.102;2024-01-07T12:42:08;3.90;99.90
32446;DHT22;18899;50.748;7.102;2024-01-07T12:44:36;4.00;99.90
32446;DHT22;18899;50.748;7.102;2024-01-07T12:47:01;3.90;99.90
32446;DHT22;18899;50.748;7.102;2024-01-07T12:49:28;3.90;99.90
32446;DHT22;18899;50.748;7.102;2024-01-07T12:51:54;3.90;99.90
32446;DHT22;18899;50.748;7.102;2024-01-07T12:54:19;3.90;99.90
32446;DHT22;18899;50.748;7.102;2024-01-07T12:56:45;3.90;99.90
32446;DHT22;18899;50.748;7.102;2024-01-07T12:59:10;3.80;99.90
32446;DHT22;18899;50.748;7.102;2024-01-07T13:01:36;3.60;99.90
32446;DHT22;18899;50.748;7.102;2024-01-07T13:04:02;3.50;99.90
32446;DHT22;18899;50.748;7.102;2024-01-07T13:06:28;3.60;99.90
32446;DHT22;18899;50.748;7.102;2024-01-07T13:08:54;3.70;99.90
32446;DHT22;18899;50.748;7.102;2024-01-07T13:11:20;3.70;99.90
32446;DHT22;18899;50.748;7.102;2024-01-07T13:13:45;3.80;99.90
32446;DHT22;18899;50.748;7.102;2024-01-07T13:16:12;3.80;99.90
32446;DHT22;18899;50.748;7.102;2024-01-07T13:18:37;3.80;99.90
32446;DHT22;18899;50.748;7.102;2024-01-07T13:21:03;3.80;99.90
32446;DHT22;18899;50.748;7.102;2024-01-07T13:23:29;3.80;99.90
32446;DHT22;18899;50.748;7.102;2024-01-07T13:25:55;3.80;99.90
32446;DHT22;18899;50.748;7.102;2024-01-07T13:28:21;3.70;99.90
32446;DHT22;18899;50.748;7.102;2024-01-07T13:30:47;3.80;99.90
32446;DHT22;18899;50.748;7.102;2024-01-07T13:33:12;3.70;99.90
32446;DHT22;18899;50.748;7.102;2024-01-07T13:35:38;3.70;99.90
32446;DHT22;18899;50.748;7.102;2024-01-07T13:38:04;3.70;99.90
32446;DHT22;18899;50.748;7.102;2024-01-07T13:40:29;3.60;99.90
32446;DHT22;18899;50.748;7.102;2024-01-07T13:42:55;3.60;99.90
32446;DHT22;18899;50.748;7.102;2024-01-07T13:45:20;3.60;99.90
32446;DHT22;18899;50.748;7.102;2024-01-07T13:47:48;3.50;99.90
32446;DHT22;18899;50.748;7.102;2024-01-07T13:50:13;3.40;99.90
32446;DHT22;18899;50.748;7.102;2024-01-07T13:52:39;3.40;99.90
32446;DHT22;18899;50.748;7.102;2024-01-07T13:55:05;3.40;99.90
32446;DHT22;18899;50.748;7.102;2024-01-07T13:57:30;3.30;99.90
32446;DHT22;18899;50.748;7.102;2024-01-07T13:59:56;3.30;99.90
32446;DHT22;18899;50.748;7.102;2024-01-07T14:02:22;3.30;99.90
32446;DHT22;18899;50.748;7.102;2024-01-07T14:04:48;3.10;99.90
32446;DHT22;18899;50.748;7.102;2024-01-07T14:07:13;3.20;99.90
32446;DHT22;18899;50.748;7.102;2024-01-07T14:09:39;3.10;99.90
32446;DHT22;18899;50.748;7.102;2024-01-07T14:12:05;3.10;99.90
32446;DHT22;18899;50.748;7.102;2024-01-07T14:14:31;3.10;99.90
32446;DHT22;18899;50.748;7.102;2024-01-07T14:16:57;3.10;99.90
32446;DHT22;18899;50.748;7.102;2024-01-07T14:19:22;3.10;99.90
32446;DHT22;18899;50.748;7.102;2024-01-07T14:21:48;3.00;99.90
32446;DHT22;18899;50.748;7.102;2024-01-07T14:24:13;3.00;99.90
32446;DHT22;18899;50.748;7.102;2024-01-07T14:26:39;3.00;99.90
32446;DHT22;18899;50.748;7.102;2024-01-07T14:29:04;2.90;99.90
32446;DHT22;18899;50.748;7.102;2024-01-07T14:31:30;2.80;99.90
32446;DHT22;18899;50.748;7.102;2024-01-07T14:33:56;2.90;99.90
32446;DHT22;18899;50.748;7.102;2024-01-07T14:36:21;2.90;99.90
32446;DHT22;18899;50.748;7.102;2024-01-07T14:38:47;2.80;99.90
32446;DHT22;18899;50.748;7.102;2024-01-07T14:41:14;2.90;99.90
32446;DHT22;18899;50.748;7.102;2024-01-07T14:43:40;2.80;99.90
32446;DHT22;18899;50.748;7.102;2024-01-07T14:46:08;2.80;99.90
32446;DHT22;18899;50.748;7.102;2024-01-07T14:48:35;2.70;99.90
32446;DHT22;18899;50.748;7.102;2024-01-07T14:51:04;2.70;99.90
32446;DHT22;18899;50.748;7.102;2024-01-07T14:53:30;2.70;99.90
32446;DHT22;18899;50.748;7.102;2024-01-07T14:55:56;2.60;99.90
32446;DHT22;18899;50.748;7.102;2024-01-07T14:58:26;2.50;99.90
32446;DHT22;18899;50.748;7.102;2024-01-07T15:00:51;2.50;99.90
32446;DHT22;18899;50.748;7.102;2024-01-07T15:03:17;2.40;99.90
32446;DHT22;18899;50.748;7.102;2024-01-07T15:05:42;2.40;99.90
32446;DHT22;18899;50.748;7.102;2024-01-07T15:08:08;2.40;99.90
32446;DHT22;18899;50.748;7.102;2024-01-07T15:10:38;2.40;99.90
32446;DHT22;18899;50.748;7.102;2024-01-07T15:13:04;2.40;99.90
32446;DHT22;18899;50.748;7.102;2024-01-07T15:15:29;2.30;99.90
32446;DHT22;18899;50.748;7.102;2024-01-07T15:17:58;2.30;99.90
32446;DHT22;18899;50.748;7.102;2024-01-07T15:20:24;2.30;99.90
32446;DHT22;18899;50.748;7.102;2024-01-07T15:22:50;2.30;99.90
32446;DHT22;18899;50.748;7.102;2024-01-07T15:25:16;2.30;99.90
32446;DHT22;18899;50.748;7.102;2024-01-07T15:27:42;2.30;99.90
32446;DHT22;18899;50.748;7.102;2024-01-07T15:30:09;2.20;99.90
32446;DHT22;18899;50.748;7.102;2024-01-07T15:32:35;2.20;99.90
32446;DHT22;18899;50.748;7.102;2024-01-07T15:35:00;2.20;99.90
32446;DHT22;18899;50.748;7.102;2024-01-07T15:37:26;2.20;99.90
32446;DHT22;18899;50.748;7.102;2024-01-07T15:39:51;2.10;99.90